createdAt,value
2023-01-29T00:01:41.812Z,101070.91
2023-01-29T00:04:44.633Z,101066.22
2023-01-29T00:07:47.185Z,101093.47
2023-01-29T00:10:49.887Z,101085.38
2023-01-29T00:13:53.206Z,101084.53
2023-01-29T00:16:55.836Z,101084.34
2023-01-29T00:19:58.660Z,101090.72
2023-01-29T00:23:01.222Z,101086.03
2023-01-29T00:26:03.918Z,101082.75
2023-01-29T00:29:06.636Z,101091.25
2023-01-29T00:32:09.369Z,101095.50
2023-01-29T00:35:12.979Z,101086.13
2023-01-29T00:38:15.615Z,101083.38
2023-01-29T00:41:36.745Z,101084.88
2023-01-29T00:44:57.693Z,101102.22
2023-01-29T00:48:00.282Z,101100.03
2023-01-29T00:51:03.560Z,101106.81
2023-01-29T00:54:07.046Z,101095.94
2023-01-29T00:57:09.666Z,101103.09
2023-01-29T01:00:16.405Z,101082.16
2023-01-29T01:03:19.221Z,101109.84
2023-01-29T01:06:23.102Z,101108.47
2023-01-29T01:09:48.756Z,101107.38
2023-01-29T01:13:00.122Z,101117.84
2023-01-29T01:16:02.848Z,101111.09
2023-01-29T01:19:05.770Z,101102.53
2023-01-29T01:22:08.420Z,101109.66
2023-01-29T01:25:11.023Z,101105.28
2023-01-29T01:28:13.815Z,101112.34
2023-01-29T01:31:16.555Z,101108.59
2023-01-29T01:34:19.770Z,101120.44
2023-01-29T01:37:22.568Z,101108.19
2023-01-29T01:40:26.259Z,101120.59
2023-01-29T01:43:28.836Z,101114.97
2023-01-29T01:46:34.665Z,101109.84
2023-01-29T01:49:37.203Z,101109.84
2023-01-29T01:52:44.197Z,101128.19
2023-01-29T01:55:53.474Z,101117.28
2023-01-29T01:58:58.565Z,101131.63
2023-01-29T02:02:19.762Z,101136.03
2023-01-29T02:05:41.235Z,101152.97
2023-01-29T02:09:25.211Z,101140.19
2023-01-29T02:12:31.260Z,101144.28
2023-01-29T02:15:34.226Z,101142.38
2023-01-29T02:18:39.177Z,101148.81
2023-01-29T02:21:44.571Z,101148.56
2023-01-29T02:25:24.444Z,101147.19
2023-01-29T02:28:49.072Z,101143.75
2023-01-29T02:32:08.370Z,101127.88
2023-01-29T02:35:34.749Z,101143.44
2023-01-29T02:39:04.602Z,101148.69
2023-01-29T02:42:16.831Z,101144.94
2023-01-29T02:45:27.454Z,101147.31
2023-01-29T02:48:49.158Z,101152.97
2023-01-29T02:52:03.397Z,101161.75
2023-01-29T02:55:19.824Z,101152.03
2023-01-29T02:58:31.602Z,101163.00
2023-01-29T03:01:45.249Z,101170.75
2023-01-29T03:04:53.300Z,101169.22
2023-01-29T03:08:00.600Z,101173.06
2023-01-29T03:11:13.695Z,101177.75
2023-01-29T03:14:23.404Z,101177.03
2023-01-29T03:17:31.761Z,101166.34
2023-01-29T03:20:38.375Z,101158.06
2023-01-29T03:24:00.910Z,101179.94
2023-01-29T03:27:26.955Z,101169.59
2023-01-29T03:30:51.437Z,101173.88
2023-01-29T03:34:24.282Z,101182.13
2023-01-29T03:37:26.830Z,101176.31
2023-01-29T03:40:35.406Z,101175.53
2023-01-29T03:43:58.900Z,101186.13
2023-01-29T03:47:18.891Z,101188.22
2023-01-29T03:50:33.565Z,101185.59
2023-01-29T03:54:18.742Z,101187.25
2023-01-29T03:57:46.907Z,101185.19
2023-01-29T04:00:58.864Z,101195.78
2023-01-29T04:04:18.445Z,101188.38
2023-01-29T04:07:24.780Z,101182.72
2023-01-29T04:10:39.095Z,101182.47
2023-01-29T04:13:43.866Z,101187.53
2023-01-29T04:16:50.089Z,101187.69
2023-01-29T04:20:07.237Z,101188.75
2023-01-29T04:23:26.072Z,101194.53
2023-01-29T04:26:47.801Z,101187.28
2023-01-29T04:30:02.591Z,101185.22
2023-01-29T04:33:22.412Z,101187.41
2023-01-29T04:36:41.609Z,101186.44
2023-01-29T04:39:59.832Z,101184.25
2023-01-29T04:43:09.073Z,101180.38
2023-01-29T04:46:27.693Z,101175.03
2023-01-29T04:49:43.522Z,101180.50
2023-01-29T04:52:50.974Z,101189.31
2023-01-29T04:56:01.279Z,101185.22
2023-01-29T04:59:09.564Z,101178.59
2023-01-29T05:02:12.832Z,101189.03
2023-01-29T05:05:18.352Z,101192.50
2023-01-29T05:11:26.513Z,101192.50
2023-01-29T05:14:30.996Z,101185.16
2023-01-29T05:17:33.616Z,101202.13
2023-01-29T05:20:39.370Z,101203.88
2023-01-29T05:23:53.140Z,101201.53
2023-01-29T05:27:14.158Z,101205.00
2023-01-29T05:30:17.146Z,101203.88
2023-01-29T05:33:31.086Z,101208.56
2023-01-29T05:36:33.665Z,101214.06
2023-01-29T05:39:36.362Z,101207.34
2023-01-29T05:42:38.908Z,101212.41
2023-01-29T05:45:41.526Z,101208.94
2023-01-29T05:48:44.170Z,101196.53
2023-01-29T05:51:46.896Z,101204.38
2023-01-29T05:54:49.414Z,101200.28
2023-01-29T05:57:51.976Z,101208.50
2023-01-29T06:00:54.507Z,101211.59
2023-01-29T06:03:56.990Z,101221.75
2023-01-29T06:06:59.642Z,101217.13
2023-01-29T06:10:03.553Z,101221.97
2023-01-29T06:13:07.113Z,101213.00
2023-01-29T06:16:11.242Z,101220.41
2023-01-29T06:19:13.892Z,101221.22
2023-01-29T06:22:16.496Z,101213.09
2023-01-29T06:25:19.090Z,101222.47
2023-01-29T06:28:21.612Z,101226.94
2023-01-29T06:31:37.912Z,101220.69
2023-01-29T06:34:41.250Z,101239.34
2023-01-29T06:37:43.841Z,101234.88
2023-01-29T06:40:46.354Z,101251.16
2023-01-29T06:43:48.953Z,101244.34
2023-01-29T06:46:51.565Z,101247.22
2023-01-29T06:49:54.153Z,101202.72
2023-01-29T06:52:56.719Z,101262.44
2023-01-29T06:55:59.354Z,101255.38
2023-01-29T06:59:01.968Z,101259.56
2023-01-29T07:02:04.708Z,101267.47
2023-01-29T07:05:07.615Z,101261.28
2023-01-29T07:08:10.156Z,101266.41
2023-01-29T07:11:13.110Z,101259.69
2023-01-29T07:14:15.633Z,101271.56
2023-01-29T07:17:18.177Z,101264.59
2023-01-29T07:20:21.338Z,101263.25
2023-01-29T07:23:24.061Z,101246.56
2023-01-29T07:26:26.754Z,101265.97
2023-01-29T07:29:29.283Z,101272.19
2023-01-29T07:32:31.890Z,101257.19
2023-01-29T07:35:41.870Z,101255.44
2023-01-29T07:38:44.355Z,101263.84
2023-01-29T07:41:46.899Z,101263.72
2023-01-29T07:44:52.415Z,101253.53
2023-01-29T07:47:55.876Z,101259.59
2023-01-29T07:50:59.220Z,101248.72
2023-01-29T07:54:01.705Z,101271.88
2023-01-29T07:57:04.236Z,101264.72
2023-01-29T08:00:07.227Z,101264.16
2023-01-29T08:03:17.429Z,101253.56
2023-01-29T08:06:20.302Z,101247.06
2023-01-29T08:09:22.797Z,101251.63
2023-01-29T08:12:25.454Z,101261.84
2023-01-29T08:15:28.557Z,101247.78
2023-01-29T08:18:31.702Z,101263.47
2023-01-29T08:21:34.298Z,101273.69
2023-01-29T08:24:47.931Z,101275.78
2023-01-29T08:27:58.110Z,101277.25
2023-01-29T08:31:00.757Z,101281.84
2023-01-29T08:34:03.409Z,101281.97
2023-01-29T08:37:06.443Z,101288.88
2023-01-29T08:40:11.044Z,101273.28
2023-01-29T08:43:14.424Z,101276.31
2023-01-29T08:46:17.013Z,101266.78
2023-01-29T08:49:19.787Z,101287.63
2023-01-29T08:52:22.560Z,101283.88
2023-01-29T08:55:25.945Z,101288.88
2023-01-29T08:58:28.564Z,101293.81
2023-01-29T09:01:31.208Z,101275.31
2023-01-29T09:04:33.719Z,101298.63
2023-01-29T09:07:36.713Z,101308.41
2023-01-29T09:10:39.467Z,101304.69
2023-01-29T09:13:42.100Z,101304.81
2023-01-29T09:16:44.660Z,101313.38
2023-01-29T09:19:47.276Z,101322.47
2023-01-29T09:22:52.116Z,101305.34
2023-01-29T09:25:54.745Z,101325.63
2023-01-29T09:28:57.288Z,101325.63
2023-01-29T09:31:59.885Z,101316.91
2023-01-29T09:35:02.499Z,101337.00
2023-01-29T09:38:10.469Z,101344.03
2023-01-29T09:41:40.427Z,101343.06
2023-01-29T09:45:07.429Z,101347.31
2023-01-29T09:48:12.290Z,101346.22
2023-01-29T09:51:29.377Z,101344.91
2023-01-29T09:54:50.779Z,101346.03
2023-01-29T09:57:57.130Z,101339.09
2023-01-29T10:01:19.933Z,101345.34
2023-01-29T10:04:55.279Z,101346.72
2023-01-29T10:08:35.469Z,101342.19
2023-01-29T10:12:11.807Z,101346.22
2023-01-29T10:15:28.576Z,101341.09
2023-01-29T10:18:56.950Z,101339.53
2023-01-29T10:22:13.065Z,101339.13
2023-01-29T10:25:21.063Z,101326.47
2023-01-29T10:28:29.459Z,101331.28
2023-01-29T10:31:34.527Z,101332.44
2023-01-29T10:34:42.685Z,101330.28
2023-01-29T10:37:45.262Z,101326.44
2023-01-29T10:40:56.243Z,101326.16
2023-01-29T10:44:15.118Z,101323.97
2023-01-29T10:47:32.785Z,101321.59
2023-01-29T10:50:50.731Z,101320.78
2023-01-29T10:54:02.293Z,101319.00
2023-01-29T10:57:18.433Z,101316.78
2023-01-29T11:00:30.630Z,101315.13
2023-01-29T11:03:34.322Z,101304.91
2023-01-29T11:06:37.218Z,101299.66
2023-01-29T11:10:00.987Z,101288.66
2023-01-29T11:13:05.566Z,101287.94
2023-01-29T11:16:09.465Z,101300.09
2023-01-29T11:19:12.075Z,101293.44
2023-01-29T11:22:20.334Z,101261.84
2023-01-29T11:25:22.961Z,101276.69
2023-01-29T11:28:45.858Z,101270.41
2023-01-29T11:31:48.917Z,101273.19
2023-01-29T11:35:06.710Z,101272.59
2023-01-29T11:38:25.510Z,101277.44
2023-01-29T11:41:28.118Z,101256.91
2023-01-29T11:44:33.365Z,101249.16
2023-01-29T11:47:36.025Z,101230.91
2023-01-29T11:50:38.566Z,101232.16
2023-01-29T11:53:46.569Z,101228.97
2023-01-29T11:56:49.405Z,101225.63
2023-01-29T11:59:53.518Z,101231.41
2023-01-29T12:03:15.785Z,101210.41
2023-01-29T12:06:31.735Z,101220.50
2023-01-29T12:09:34.391Z,101218.69
2023-01-29T12:12:42.195Z,101202.72
2023-01-29T12:15:44.850Z,101209.00
2023-01-29T12:18:55.740Z,101196.06
2023-01-29T12:22:04.240Z,101189.63
2023-01-29T12:25:23.129Z,101194.69
2023-01-29T12:28:37.890Z,101183.47
2023-01-29T12:31:43.666Z,101186.66
2023-01-29T12:34:59.183Z,101192.09
2023-01-29T12:38:10.453Z,101180.56
2023-01-29T12:41:39.215Z,101188.06
2023-01-29T12:44:48.639Z,101186.97
2023-01-29T12:47:57.476Z,101180.59
2023-01-29T12:51:39.163Z,101188.03
2023-01-29T12:54:55.042Z,101170.41
2023-01-29T12:58:05.568Z,101177.84
2023-01-29T13:01:16.595Z,101171.31
2023-01-29T13:04:42.508Z,101163.72
2023-01-29T13:07:52.279Z,101160.00
2023-01-29T13:10:56.368Z,101160.00
2023-01-29T13:14:06.656Z,101164.63
2023-01-29T13:17:34.556Z,101163.84
2023-01-29T13:20:37.588Z,101152.09
2023-01-29T13:23:52.476Z,101141.47
2023-01-29T13:26:55.068Z,101141.34
2023-01-29T13:29:58.005Z,101142.78
2023-01-29T13:33:10.330Z,101137.81
2023-01-29T13:36:18.578Z,101111.63
2023-01-29T13:39:37.587Z,101114.03
2023-01-29T13:42:48.642Z,101116.09
2023-01-29T13:45:53.015Z,101117.38
2023-01-29T13:48:58.316Z,101118.03
2023-01-29T13:52:16.369Z,101099.00
2023-01-29T13:55:19.335Z,101105.84
2023-01-29T13:58:31.420Z,101106.94
2023-01-29T14:01:49.303Z,101117.66
2023-01-29T14:04:52.724Z,101082.16
2023-01-29T14:08:25.908Z,101111.56
2023-01-29T14:11:34.807Z,101094.94
2023-01-29T14:14:49.477Z,101113.22
2023-01-29T14:17:59.824Z,101081.81
2023-01-29T14:21:14.809Z,101114.63
2023-01-29T14:24:23.379Z,101115.19
2023-01-29T14:27:26.188Z,101105.34
2023-01-29T14:30:34.607Z,101107.78
2023-01-29T14:33:43.410Z,101111.63
2023-01-29T14:36:55.343Z,101095.69
2023-01-29T14:40:00.350Z,101099.09
2023-01-29T14:43:20.087Z,101113.59
2023-01-29T14:46:35.294Z,101114.56
2023-01-29T14:49:54.485Z,101114.88
2023-01-29T14:53:40.291Z,101113.75
2023-01-29T14:56:58.597Z,101122.88
2023-01-29T15:00:06.425Z,101121.09
2023-01-29T15:03:37.559Z,101122.47
2023-01-29T15:07:15.014Z,101124.56
2023-01-29T15:10:23.385Z,101131.63
2023-01-29T15:13:38.271Z,101119.63
2023-01-29T15:16:46.681Z,101121.03
2023-01-29T15:19:49.856Z,101137.44
2023-01-29T15:22:52.377Z,101128.72
2023-01-29T15:26:01.843Z,101140.88
2023-01-29T15:29:06.030Z,101142.53
2023-01-29T15:32:15.697Z,101131.53
2023-01-29T15:35:39.806Z,101123.25
2023-01-29T15:38:42.442Z,101122.41
2023-01-29T15:41:46.046Z,101098.75
2023-01-29T15:44:48.872Z,101118.16
2023-01-29T15:47:52.912Z,101127.38
2023-01-29T15:50:56.235Z,101136.22
2023-01-29T15:54:01.450Z,101135.50
2023-01-29T15:57:04.208Z,101138.41
2023-01-29T16:00:09.249Z,101138.63
2023-01-29T16:03:15.694Z,101137.81
2023-01-29T16:06:19.267Z,101134.47
2023-01-29T16:09:26.261Z,101148.38
2023-01-29T16:12:29.172Z,101149.03
2023-01-29T16:15:38.046Z,101147.22
2023-01-29T16:18:58.055Z,101147.72
2023-01-29T16:22:06.096Z,101143.78
2023-01-29T16:25:14.749Z,101152.19
2023-01-29T16:28:18.210Z,101152.63
2023-01-29T16:31:24.003Z,101158.00
2023-01-29T16:34:34.613Z,101168.03
2023-01-29T16:37:37.472Z,101172.88
2023-01-29T16:40:55.398Z,101178.19
2023-01-29T16:44:03.214Z,101177.81
2023-01-29T16:47:14.363Z,101155.97
2023-01-29T16:50:46.403Z,101171.00
2023-01-29T16:54:26.688Z,101178.06
2023-01-29T16:57:33.557Z,101178.75
2023-01-29T17:00:36.448Z,101178.38
2023-01-29T17:03:39.907Z,101161.03
2023-01-29T17:06:47.351Z,101179.75
2023-01-29T17:09:54.362Z,101179.34
2023-01-29T17:13:02.496Z,101175.41
2023-01-29T17:16:49.036Z,101182.59
2023-01-29T17:19:51.771Z,101190.88
2023-01-29T17:22:54.580Z,101188.25
2023-01-29T17:25:57.367Z,101176.41
2023-01-29T17:29:00.076Z,101173.50
2023-01-29T17:32:02.937Z,101179.16
2023-01-29T17:35:06.701Z,101168.25
2023-01-29T17:38:24.257Z,101180.09
2023-01-29T17:41:30.415Z,101179.03
2023-01-29T17:44:33.165Z,101164.41
2023-01-29T17:47:35.964Z,101170.34
2023-01-29T17:50:40.121Z,101160.66
2023-01-29T17:53:58.663Z,101160.81
2023-01-29T17:57:01.416Z,101150.19
2023-01-29T18:00:13.628Z,101154.06
2023-01-29T18:03:16.675Z,101155.56
2023-01-29T18:06:28.195Z,101160.19
2023-01-29T18:09:30.782Z,101156.78
2023-01-29T18:12:33.454Z,101146.44
2023-01-29T18:15:36.261Z,101144.66
2023-01-29T18:18:39.546Z,101142.72
2023-01-29T18:21:42.234Z,101147.53
2023-01-29T18:24:45.109Z,101142.72
2023-01-29T18:27:47.700Z,101136.44
2023-01-29T18:30:50.862Z,101134.91
2023-01-29T18:33:53.642Z,101138.50
2023-01-29T18:36:56.406Z,101134.41
2023-01-29T18:39:59.558Z,101134.94
2023-01-29T18:43:03.154Z,101129.66
2023-01-29T18:46:06.640Z,101122.81
2023-01-29T18:49:09.447Z,101120.94
2023-01-29T18:52:11.984Z,101116.72
2023-01-29T18:55:14.947Z,101109.69
2023-01-29T18:58:26.733Z,101104.16
2023-01-29T19:01:37.384Z,101106.50
2023-01-29T19:04:40.115Z,101085.84
2023-01-29T19:07:42.995Z,101067.25
2023-01-29T19:10:45.704Z,101090.97
2023-01-29T19:13:49.918Z,101086.31
2023-01-29T19:16:52.589Z,101088.97
2023-01-29T19:19:56.563Z,101099.34
2023-01-29T19:22:59.701Z,101089.06
2023-01-29T19:26:02.571Z,101100.06
2023-01-29T19:29:05.317Z,101089.91
2023-01-29T19:32:09.090Z,101095.56
2023-01-29T19:35:12.046Z,101096.69
2023-01-29T19:38:19.336Z,101104.25
2023-01-29T19:41:22.191Z,101085.88
2023-01-29T19:44:25.693Z,101088.34
2023-01-29T19:47:29.265Z,101102.63
2023-01-29T19:50:32.192Z,101093.81
2023-01-29T19:53:36.040Z,101100.94
2023-01-29T19:56:39.592Z,101092.53
2023-01-29T19:59:45.614Z,101075.00
2023-01-29T20:02:48.633Z,101088.94
2023-01-29T20:05:51.401Z,101079.00
2023-01-29T20:08:54.377Z,101086.53
2023-01-29T20:11:57.278Z,101095.56
2023-01-29T20:14:59.910Z,101093.78
2023-01-29T20:18:03.445Z,101085.69
2023-01-29T20:21:15.565Z,101095.13
2023-01-29T20:24:18.196Z,101066.03
2023-01-29T20:27:21.131Z,101063.31
2023-01-29T20:30:23.851Z,101081.75
2023-01-29T20:33:26.704Z,101076.41
2023-01-29T20:36:30.505Z,101078.59
2023-01-29T20:39:33.446Z,101070.44
2023-01-29T20:42:36.151Z,101072.34
2023-01-29T20:45:42.268Z,101070.38
2023-01-29T20:48:44.868Z,101063.97
2023-01-29T20:51:48.713Z,101062.09
2023-01-29T20:54:51.473Z,101054.72
2023-01-29T20:58:06.129Z,101051.47
2023-01-29T21:01:15.762Z,101064.03
2023-01-29T21:04:18.570Z,101044.81
2023-01-29T21:07:24.303Z,101060.47
2023-01-29T21:10:27.084Z,101057.53
2023-01-29T21:13:29.849Z,101062.78
2023-01-29T21:16:32.703Z,101064.69
2023-01-29T21:19:35.313Z,101060.44
2023-01-29T21:22:38.206Z,101068.00
2023-01-29T21:25:41.334Z,101066.81
2023-01-29T21:28:46.076Z,101062.88
2023-01-29T21:31:48.857Z,101068.16
2023-01-29T21:34:52.662Z,101060.59
2023-01-29T21:37:55.523Z,101071.78
2023-01-29T21:41:02.670Z,101058.53
2023-01-29T21:44:05.719Z,101064.09
2023-01-29T21:47:14.482Z,101064.13
2023-01-29T21:50:17.506Z,101057.91
2023-01-29T21:53:20.593Z,101065.84
2023-01-29T21:56:23.051Z,101066.63
2023-01-29T21:59:25.640Z,101055.91
2023-01-29T22:02:30.953Z,101064.69
2023-01-29T22:05:34.229Z,101066.63
2023-01-29T22:08:36.761Z,101068.28
2023-01-29T22:11:41.369Z,101060.22
2023-01-29T22:14:44.840Z,101055.78
2023-01-29T22:17:47.436Z,101039.06
2023-01-29T22:20:53.973Z,101050.25
2023-01-29T22:23:56.497Z,101030.09
2023-01-29T22:26:59.062Z,101053.75
2023-01-29T22:30:01.642Z,101054.59
2023-01-29T22:33:04.364Z,101050.06
2023-01-29T22:36:07.485Z,101042.06
2023-01-29T22:39:10.102Z,100984.06
2023-01-29T22:42:12.658Z,101058.25
2023-01-29T22:45:15.229Z,101051.13
2023-01-29T22:48:17.981Z,101043.94
2023-01-29T22:51:20.823Z,101060.13
2023-01-29T22:54:23.334Z,101058.47
2023-01-29T22:57:25.910Z,101054.69
2023-01-29T23:00:28.476Z,101040.28
2023-01-29T23:03:31.139Z,101030.69
2023-01-29T23:06:33.692Z,101013.75
2023-01-29T23:09:36.312Z,101034.56
2023-01-29T23:12:38.978Z,101020.59
2023-01-29T23:15:41.672Z,100995.56
2023-01-29T23:18:45.261Z,101020.97
2023-01-29T23:21:47.852Z,101007.09
2023-01-29T23:24:50.517Z,101013.03
2023-01-29T23:27:53.115Z,101004.97
2023-01-29T23:30:55.804Z,101011.38
2023-01-29T23:33:58.551Z,101007.09
2023-01-29T23:37:01.124Z,101006.63
2023-01-29T23:40:04.141Z,100991.94
2023-01-29T23:43:06.782Z,101005.69
2023-01-29T23:46:09.361Z,100981.44
2023-01-29T23:49:12.087Z,100976.81
2023-01-29T23:52:14.753Z,100976.34
2023-01-29T23:55:17.264Z,100971.16
2023-01-29T23:58:19.813Z,100945.16
